sensor_id;sensor_type;location;lat;lon;timestamp;pressure;altitude;pressure_sealevel;temperature;humidity
46690;BME280;32423;45.398;10.874;2023-12-28T00:01:30;101934.72;;;9.22;72.44
46690;BME280;32423;45.398;10.874;2023-12-28T00:04:25;101935.56;;;9.18;73.21
46690;BME280;32423;45.398;10.874;2023-12-28T00:07:17;101934.53;;;9.68;71.42
46690;BME280;32423;45.398;10.874;2023-12-28T00:10:12;101936.75;;;9.56;71.79
46690;BME280;32423;45.398;10.874;2023-12-28T00:13:06;101938.25;;;9.82;71.08
46690;BME280;32423;45.398;10.874;2023-12-28T00:15:56;101940.03;;;10.02;70.81
46690;BME280;32423;45.398;10.874;2023-12-28T00:18:51;101941.41;;;10.04;69.59
46690;BME280;32423;45.398;10.874;2023-12-28T00:21:45;101941.16;;;9.96;70.16
46690;BME280;32423;45.398;10.874;2023-12-28T00:24:40;101938.19;;;9.97;70.05
46690;BME280;32423;45.398;10.874;2023-12-28T00:27:34;101942.66;;;9.73;70.13
46690;BME280;32423;45.398;10.874;2023-12-28T00:30:30;101942.09;;;9.76;70.87
46690;BME280;32423;45.398;10.874;2023-12-28T00:33:24;101933.38;;;9.84;70.17
46690;BME280;32423;45.398;10.874;2023-12-28T00:36:20;101941.16;;;9.96;69.42
46690;BME280;32423;45.398;10.874;2023-12-28T00:39:15;101938.31;;;9.72;70.18
46690;BME280;32423;45.398;10.874;2023-12-28T00:42:07;101945.88;;;9.85;69.96
46690;BME280;32423;45.398;10.874;2023-12-28T00:45:01;101945.69;;;10.20;68.89
46690;BME280;32423;45.398;10.874;2023-12-28T00:47:55;101940.78;;;10.17;67.78
46690;BME280;32423;45.398;10.874;2023-12-28T00:50:48;101947.03;;;10.18;68.07
46690;BME280;32423;45.398;10.874;2023-12-28T00:53:40;101937.69;;;10.34;67.33
46690;BME280;32423;45.398;10.874;2023-12-28T00:56:35;101936.69;;;10.25;67.60
46690;BME280;32423;45.398;10.874;2023-12-28T00:59:27;101937.94;;;10.38;66.96
46690;BME280;32423;45.398;10.874;2023-12-28T01:02:19;101937.63;;;10.44;66.17
46690;BME280;32423;45.398;10.874;2023-12-28T01:05:14;101940.66;;;10.38;66.42
46690;BME280;32423;45.398;10.874;2023-12-28T01:08:06;101946.03;;;10.43;66.40
46690;BME280;32423;45.398;10.874;2023-12-28T01:11:00;101938.31;;;10.21;67.05
46690;BME280;32423;45.398;10.874;2023-12-28T01:13:55;101938.06;;;10.17;67.47
46690;BME280;32423;45.398;10.874;2023-12-28T01:16:49;101936.28;;;10.37;66.72
46690;BME280;32423;45.398;10.874;2023-12-28T01:19:44;101938.94;;;10.47;66.31
46690;BME280;32423;45.398;10.874;2023-12-28T01:22:40;101938.34;;;10.55;66.33
46690;BME280;32423;45.398;10.874;2023-12-28T01:25:32;101937.16;;;10.66;65.98
46690;BME280;32423;45.398;10.874;2023-12-28T01:28:27;101931.03;;;10.50;66.66
46690;BME280;32423;45.398;10.874;2023-12-28T01:31:22;101935.78;;;10.35;66.99
46690;BME280;32423;45.398;10.874;2023-12-28T01:34:16;101940.59;;;10.43;66.95
46690;BME280;32423;45.398;10.874;2023-12-28T01:37:11;101946.94;;;10.33;66.83
46690;BME280;32423;45.398;10.874;2023-12-28T01:40:01;101948.50;;;10.44;67.23
46690;BME280;32423;45.398;10.874;2023-12-28T01:42:55;101939.34;;;10.64;66.99
46690;BME280;32423;45.398;10.874;2023-12-28T01:45:48;101941.78;;;10.32;67.19
46690;BME280;32423;45.398;10.874;2023-12-28T01:48:42;101940.53;;;10.14;69.46
46690;BME280;32423;45.398;10.874;2023-12-28T01:51:41;101937.88;;;10.43;68.28
46690;BME280;32423;45.398;10.874;2023-12-28T01:54:36;101934.06;;;10.05;68.82
46690;BME280;32423;45.398;10.874;2023-12-28T01:57:32;101930.38;;;10.29;68.81
46690;BME280;32423;45.398;10.874;2023-12-28T02:00:26;101925.03;;;10.53;67.99
46690;BME280;32423;45.398;10.874;2023-12-28T02:03:19;101925.50;;;10.60;67.14
46690;BME280;32423;45.398;10.874;2023-12-28T02:06:12;101920.94;;;10.56;66.22
46690;BME280;32423;45.398;10.874;2023-12-28T02:09:08;101918.63;;;9.95;67.99
46690;BME280;32423;45.398;10.874;2023-12-28T02:12:00;101913.31;;;9.75;69.37
46690;BME280;32423;45.398;10.874;2023-12-28T02:14:55;101917.50;;;10.01;70.13
46690;BME280;32423;45.398;10.874;2023-12-28T02:18:05;101914.84;;;10.35;67.99
46690;BME280;32423;45.398;10.874;2023-12-28T02:21:02;101910.16;;;10.46;67.43
46690;BME280;32423;45.398;10.874;2023-12-28T02:23:54;101908.84;;;9.94;67.40
46690;BME280;32423;45.398;10.874;2023-12-28T02:26:46;101916.78;;;10.29;67.45
46690;BME280;32423;45.398;10.874;2023-12-28T02:29:38;101903.59;;;10.47;66.75
46690;BME280;32423;45.398;10.874;2023-12-28T02:36:05;101898.81;;;10.34;67.71
46690;BME280;32423;45.398;10.874;2023-12-28T02:39:00;101894.34;;;10.48;67.03
46690;BME280;32423;45.398;10.874;2023-12-28T02:41:56;101898.41;;;10.50;67.17
46690;BME280;32423;45.398;10.874;2023-12-28T02:44:49;101891.47;;;10.63;67.36
46690;BME280;32423;45.398;10.874;2023-12-28T02:47:41;101893.19;;;10.54;66.47
46690;BME280;32423;45.398;10.874;2023-12-28T02:50:37;101895.47;;;10.42;68.15
46690;BME280;32423;45.398;10.874;2023-12-28T02:53:34;101889.94;;;10.52;67.72
46690;BME280;32423;45.398;10.874;2023-12-28T02:56:27;101888.28;;;10.56;67.37
46690;BME280;32423;45.398;10.874;2023-12-28T02:59:21;101889.28;;;10.65;67.02
46690;BME280;32423;45.398;10.874;2023-12-28T03:02:16;101881.94;;;10.65;66.78
46690;BME280;32423;45.398;10.874;2023-12-28T03:05:11;101890.88;;;10.37;68.19
46690;BME280;32423;45.398;10.874;2023-12-28T03:08:06;101878.91;;;10.38;67.97
46690;BME280;32423;45.398;10.874;2023-12-28T03:11:00;101879.47;;;10.40;68.02
46690;BME280;32423;45.398;10.874;2023-12-28T03:13:55;101887.97;;;10.28;69.16
46690;BME280;32423;45.398;10.874;2023-12-28T03:16:52;101879.75;;;10.39;68.48
46690;BME280;32423;45.398;10.874;2023-12-28T03:19:47;101886.19;;;10.48;67.94
46690;BME280;32423;45.398;10.874;2023-12-28T03:22:39;101883.38;;;10.58;68.22
46690;BME280;32423;45.398;10.874;2023-12-28T03:25:34;101890.31;;;10.01;70.24
46690;BME280;32423;45.398;10.874;2023-12-28T03:28:30;101891.88;;;10.17;70.51
46690;BME280;32423;45.398;10.874;2023-12-28T03:31:24;101889.78;;;10.04;71.01
46690;BME280;32423;45.398;10.874;2023-12-28T03:34:16;101883.09;;;10.31;69.70
46690;BME280;32423;45.398;10.874;2023-12-28T03:37:09;101890.13;;;10.32;69.67
46690;BME280;32423;45.398;10.874;2023-12-28T03:40:03;101880.78;;;10.43;69.54
46690;BME280;32423;45.398;10.874;2023-12-28T03:42:58;101877.84;;;10.39;70.04
46690;BME280;32423;45.398;10.874;2023-12-28T03:45:53;101875.13;;;10.39;69.58
46690;BME280;32423;45.398;10.874;2023-12-28T03:48:47;101873.72;;;10.42;69.58
46690;BME280;32423;45.398;10.874;2023-12-28T03:51:42;101872.59;;;10.48;69.58
46690;BME280;32423;45.398;10.874;2023-12-28T03:54:36;101867.72;;;10.45;68.99
46690;BME280;32423;45.398;10.874;2023-12-28T03:57:31;101874.75;;;10.17;70.06
46690;BME280;32423;45.398;10.874;2023-12-28T04:00:26;101869.53;;;10.25;69.79
46690;BME280;32423;45.398;10.874;2023-12-28T04:03:18;101874.78;;;9.68;70.71
46690;BME280;32423;45.398;10.874;2023-12-28T04:06:13;101862.66;;;9.50;71.93
46690;BME280;32423;45.398;10.874;2023-12-28T04:09:07;101864.22;;;9.61;72.01
46690;BME280;32423;45.398;10.874;2023-12-28T04:11:59;101863.94;;;9.63;71.85
46690;BME280;32423;45.398;10.874;2023-12-28T04:14:51;101863.59;;;9.79;71.16
46690;BME280;32423;45.398;10.874;2023-12-28T04:17:46;101859.13;;;9.94;69.73
46690;BME280;32423;45.398;10.874;2023-12-28T04:20:39;101861.69;;;9.80;71.72
46690;BME280;32423;45.398;10.874;2023-12-28T04:23:31;101853.53;;;9.80;71.04
46690;BME280;32423;45.398;10.874;2023-12-28T04:26:31;101851.63;;;9.75;71.66
46690;BME280;32423;45.398;10.874;2023-12-28T04:29:23;101861.31;;;9.48;69.27
46690;BME280;32423;45.398;10.874;2023-12-28T04:32:15;101862.63;;;9.55;70.25
46690;BME280;32423;45.398;10.874;2023-12-28T04:35:09;101854.03;;;9.43;69.88
46690;BME280;32423;45.398;10.874;2023-12-28T04:38:02;101860.44;;;9.57;69.91
46690;BME280;32423;45.398;10.874;2023-12-28T04:40:55;101843.06;;;9.97;68.37
46690;BME280;32423;45.398;10.874;2023-12-28T04:43:46;101855.78;;;9.68;67.60
46690;BME280;32423;45.398;10.874;2023-12-28T04:46:39;101856.25;;;9.31;68.78
46690;BME280;32423;45.398;10.874;2023-12-28T04:49:31;101856.69;;;9.53;69.17
46690;BME280;32423;45.398;10.874;2023-12-28T04:52:23;101862.41;;;9.47;68.00
46690;BME280;32423;45.398;10.874;2023-12-28T04:55:18;101856.25;;;9.80;68.41
46690;BME280;32423;45.398;10.874;2023-12-28T04:58:11;101860.38;;;10.06;66.58
46690;BME280;32423;45.398;10.874;2023-12-28T05:01:08;101861.38;;;10.25;65.82
46690;BME280;32423;45.398;10.874;2023-12-28T05:04:00;101842.22;;;10.02;65.88
46690;BME280;32423;45.398;10.874;2023-12-28T05:06:50;101862.00;;;9.73;66.76
46690;BME280;32423;45.398;10.874;2023-12-28T05:09:45;101857.75;;;9.96;67.46
46690;BME280;32423;45.398;10.874;2023-12-28T05:12:37;101871.59;;;9.56;68.36
46690;BME280;32423;45.398;10.874;2023-12-28T05:15:31;101866.50;;;9.88;68.27
46690;BME280;32423;45.398;10.874;2023-12-28T05:18:23;101871.53;;;10.10;66.92
46690;BME280;32423;45.398;10.874;2023-12-28T05:21:18;101878.25;;;10.22;66.30
46690;BME280;32423;45.398;10.874;2023-12-28T05:24:08;101864.31;;;10.29;66.47
46690;BME280;32423;45.398;10.874;2023-12-28T05:26:58;101881.44;;;10.29;67.02
46690;BME280;32423;45.398;10.874;2023-12-28T05:29:52;101875.16;;;10.34;66.62
46690;BME280;32423;45.398;10.874;2023-12-28T05:32:42;101888.47;;;10.36;67.15
46690;BME280;32423;45.398;10.874;2023-12-28T05:35:36;101882.81;;;10.27;66.99
46690;BME280;32423;45.398;10.874;2023-12-28T05:38:30;101869.22;;;10.27;66.26
46690;BME280;32423;45.398;10.874;2023-12-28T05:41:25;101878.47;;;10.26;66.22
46690;BME280;32423;45.398;10.874;2023-12-28T05:44:20;101874.94;;;10.31;66.75
46690;BME280;32423;45.398;10.874;2023-12-28T05:47:12;101881.91;;;10.37;65.88
46690;BME280;32423;45.398;10.874;2023-12-28T05:50:05;101885.75;;;10.36;65.88
46690;BME280;32423;45.398;10.874;2023-12-28T05:52:58;101883.44;;;10.14;66.36
46690;BME280;32423;45.398;10.874;2023-12-28T05:55:52;101893.78;;;10.17;65.68
46690;BME280;32423;45.398;10.874;2023-12-28T05:58:47;101885.84;;;10.25;65.48
46690;BME280;32423;45.398;10.874;2023-12-28T06:01:48;101911.13;;;10.21;65.46
46690;BME280;32423;45.398;10.874;2023-12-28T06:04:40;101896.22;;;10.18;63.76
46690;BME280;32423;45.398;10.874;2023-12-28T06:07:32;101888.25;;;10.27;64.81
46690;BME280;32423;45.398;10.874;2023-12-28T06:10:29;101894.22;;;9.90;65.45
46690;BME280;32423;45.398;10.874;2023-12-28T06:13:17;101888.75;;;9.41;68.83
46690;BME280;32423;45.398;10.874;2023-12-28T06:16:09;101898.94;;;9.74;67.09
46690;BME280;32423;45.398;10.874;2023-12-28T06:19:03;101895.75;;;10.01;65.52
46690;BME280;32423;45.398;10.874;2023-12-28T06:21:55;101913.69;;;10.02;65.49
46690;BME280;32423;45.398;10.874;2023-12-28T06:24:47;101898.94;;;10.13;64.89
46690;BME280;32423;45.398;10.874;2023-12-28T06:27:39;101907.91;;;10.14;64.98
46690;BME280;32423;45.398;10.874;2023-12-28T06:30:37;101918.78;;;10.14;65.49
46690;BME280;32423;45.398;10.874;2023-12-28T06:33:32;101919.88;;;9.69;65.89
46690;BME280;32423;45.398;10.874;2023-12-28T06:36:24;101912.94;;;9.42;66.55
46690;BME280;32423;45.398;10.874;2023-12-28T06:39:16;101915.69;;;9.27;67.10
46690;BME280;32423;45.398;10.874;2023-12-28T06:42:08;101917.38;;;9.18;68.04
46690;BME280;32423;45.398;10.874;2023-12-28T06:45:03;101921.41;;;9.26;68.34
46690;BME280;32423;45.398;10.874;2023-12-28T06:47:57;101910.84;;;9.19;68.83
46690;BME280;32423;45.398;10.874;2023-12-28T06:50:49;101910.84;;;9.19;69.47
46690;BME280;32423;45.398;10.874;2023-12-28T06:53:44;101908.66;;;9.21;69.97
46690;BME280;32423;45.398;10.874;2023-12-28T06:56:38;101906.50;;;9.18;70.12
46690;BME280;32423;45.398;10.874;2023-12-28T06:59:30;101912.78;;;9.14;69.92
46690;BME280;32423;45.398;10.874;2023-12-28T07:02:22;101916.31;;;9.09;70.85
46690;BME280;32423;45.398;10.874;2023-12-28T07:05:17;101916.84;;;9.11;71.76
46690;BME280;32423;45.398;10.874;2023-12-28T07:08:12;101914.94;;;9.12;70.82
46690;BME280;32423;45.398;10.874;2023-12-28T07:11:04;101910.59;;;9.06;71.20
46690;BME280;32423;45.398;10.874;2023-12-28T07:13:58;101911.41;;;9.11;70.93
46690;BME280;32423;45.398;10.874;2023-12-28T07:16:50;101915.78;;;9.02;71.11
46690;BME280;32423;45.398;10.874;2023-12-28T07:19:42;101915.75;;;9.07;70.73
46690;BME280;32423;45.398;10.874;2023-12-28T07:22:37;101914.09;;;9.16;70.93
46690;BME280;32423;45.398;10.874;2023-12-28T07:25:29;101913.81;;;9.28;70.03
46690;BME280;32423;45.398;10.874;2023-12-28T07:28:24;101917.63;;;9.22;70.31
46690;BME280;32423;45.398;10.874;2023-12-28T07:31:24;101927.38;;;9.28;69.76
46690;BME280;32423;45.398;10.874;2023-12-28T07:34:16;101930.63;;;9.25;69.39
46690;BME280;32423;45.398;10.874;2023-12-28T07:37:11;101938.22;;;9.28;69.68
46690;BME280;32423;45.398;10.874;2023-12-28T07:40:01;101931.16;;;9.32;69.83
46690;BME280;32423;45.398;10.874;2023-12-28T07:42:54;101930.88;;;9.38;69.51
46690;BME280;32423;45.398;10.874;2023-12-28T07:45:49;101940.94;;;9.28;68.90
46690;BME280;32423;45.398;10.874;2023-12-28T07:48:43;101940.38;;;9.31;69.15
46690;BME280;32423;45.398;10.874;2023-12-28T07:51:41;101939.88;;;9.29;70.16
46690;BME280;32423;45.398;10.874;2023-12-28T07:54:33;101937.66;;;9.31;68.92
46690;BME280;32423;45.398;10.874;2023-12-28T07:57:25;101936.84;;;9.35;68.56
46690;BME280;32423;45.398;10.874;2023-12-28T08:00:20;101934.13;;;9.35;68.39
46690;BME280;32423;45.398;10.874;2023-12-28T08:03:14;101933.03;;;9.36;68.71
46690;BME280;32423;45.398;10.874;2023-12-28T08:06:12;101940.56;;;9.60;68.21
46690;BME280;32423;45.398;10.874;2023-12-28T08:09:05;101948.72;;;9.55;67.59
46690;BME280;32423;45.398;10.874;2023-12-28T08:11:59;101942.16;;;9.61;67.03
46690;BME280;32423;45.398;10.874;2023-12-28T08:14:54;101939.97;;;9.68;66.97
46690;BME280;32423;45.398;10.874;2023-12-28T08:17:46;101945.44;;;9.63;67.25
46690;BME280;32423;45.398;10.874;2023-12-28T08:20:41;101946.94;;;9.84;66.77
46690;BME280;32423;45.398;10.874;2023-12-28T08:23:35;101956.34;;;10.02;65.94
46690;BME280;32423;45.398;10.874;2023-12-28T08:26:30;101952.81;;;10.01;65.59
46690;BME280;32423;45.398;10.874;2023-12-28T08:29:24;101954.13;;;10.14;65.08
46690;BME280;32423;45.398;10.874;2023-12-28T08:32:19;101950.03;;;10.11;64.90
46690;BME280;32423;45.398;10.874;2023-12-28T08:35:14;101949.56;;;10.04;66.39
46690;BME280;32423;45.398;10.874;2023-12-28T08:38:06;101955.94;;;10.28;65.93
46690;BME280;32423;45.398;10.874;2023-12-28T08:40:58;101950.53;;;10.57;64.42
46690;BME280;32423;45.398;10.874;2023-12-28T08:43:50;101953.19;;;10.67;63.88
46690;BME280;32423;45.398;10.874;2023-12-28T08:46:44;101959.44;;;10.68;63.42
46690;BME280;32423;45.398;10.874;2023-12-28T08:49:39;101959.56;;;10.87;62.11
46690;BME280;32423;45.398;10.874;2023-12-28T08:52:34;101962.38;;;10.77;62.50
46690;BME280;32423;45.398;10.874;2023-12-28T08:55:26;101961.56;;;10.76;63.09
46690;BME280;32423;45.398;10.874;2023-12-28T08:58:18;101969.69;;;10.81;62.98
46690;BME280;32423;45.398;10.874;2023-12-28T09:01:23;101975.28;;;10.61;63.90
46690;BME280;32423;45.398;10.874;2023-12-28T09:04:18;101966.09;;;10.86;63.16
46690;BME280;32423;45.398;10.874;2023-12-28T09:07:13;101977.94;;;11.00;62.92
46690;BME280;32423;45.398;10.874;2023-12-28T09:10:05;101978.41;;;11.07;61.98
46690;BME280;32423;45.398;10.874;2023-12-28T09:13:00;101977.69;;;10.96;62.79
46690;BME280;32423;45.398;10.874;2023-12-28T09:15:52;101978.06;;;11.13;62.49
46690;BME280;32423;45.398;10.874;2023-12-28T09:18:44;101987.75;;;11.25;61.78
46690;BME280;32423;45.398;10.874;2023-12-28T09:21:36;101983.53;;;11.37;61.75
46690;BME280;32423;45.398;10.874;2023-12-28T09:24:28;101983.44;;;11.47;61.51
46690;BME280;32423;45.398;10.874;2023-12-28T09:27:20;101990.06;;;11.60;61.28
46690;BME280;32423;45.398;10.874;2023-12-28T09:30:14;101985.09;;;11.67;61.32
46690;BME280;32423;45.398;10.874;2023-12-28T09:33:12;101982.78;;;11.79;60.06
46690;BME280;32423;45.398;10.874;2023-12-28T09:36:08;101982.38;;;12.10;58.90
46690;BME280;32423;45.398;10.874;2023-12-28T09:38:58;101977.91;;;12.19;57.04
46690;BME280;32423;45.398;10.874;2023-12-28T09:41:56;101978.84;;;12.28;57.65
46690;BME280;32423;45.398;10.874;2023-12-28T09:44:46;101978.44;;;12.34;57.49
46690;BME280;32423;45.398;10.874;2023-12-28T09:47:40;101975.66;;;12.58;57.12
46690;BME280;32423;45.398;10.874;2023-12-28T09:50:33;101976.81;;;12.52;57.68
46690;BME280;32423;45.398;10.874;2023-12-28T09:53:27;101976.47;;;13.05;56.19
46690;BME280;32423;45.398;10.874;2023-12-28T09:56:23;101979.50;;;13.36;55.46
46690;BME280;32423;45.398;10.874;2023-12-28T09:59:16;101973.81;;;13.46;54.62
46690;BME280;32423;45.398;10.874;2023-12-28T10:02:04;101985.22;;;13.61;54.57
46690;BME280;32423;45.398;10.874;2023-12-28T10:04:56;101973.56;;;13.83;53.84
46690;BME280;32423;45.398;10.874;2023-12-28T10:07:51;101977.78;;;14.52;51.80
46690;BME280;32423;45.398;10.874;2023-12-28T10:10:46;101972.28;;;14.75;50.84
46690;BME280;32423;45.398;10.874;2023-12-28T10:13:40;101975.53;;;15.87;48.24
46690;BME280;32423;45.398;10.874;2023-12-28T10:16:42;101970.88;;;16.13;46.79
46690;BME280;32423;45.398;10.874;2023-12-28T10:19:34;101966.03;;;16.53;47.06
46690;BME280;32423;45.398;10.874;2023-12-28T10:22:21;101954.38;;;16.90;45.26
46690;BME280;32423;45.398;10.874;2023-12-28T10:25:14;101951.44;;;17.71;43.45
46690;BME280;32423;45.398;10.874;2023-12-28T10:28:09;101958.19;;;18.03;42.28
46690;BME280;32423;45.398;10.874;2023-12-28T10:31:04;101944.88;;;20.97;36.98
46690;BME280;32423;45.398;10.874;2023-12-28T10:33:59;101953.78;;;21.06;36.56
46690;BME280;32423;45.398;10.874;2023-12-28T10:36:52;101947.72;;;21.00;35.89
46690;BME280;32423;45.398;10.874;2023-12-28T10:39:48;101943.50;;;20.07;37.08
46690;BME280;32423;45.398;10.874;2023-12-28T10:45:52;101945.25;;;28.80;24.63
46690;BME280;32423;45.398;10.874;2023-12-28T10:48:46;101953.13;;;28.19;24.51
46690;BME280;32423;45.398;10.874;2023-12-28T10:51:43;101943.84;;;26.20;26.17
46690;BME280;32423;45.398;10.874;2023-12-28T10:54:50;101942.28;;;26.26;25.70
46690;BME280;32423;45.398;10.874;2023-12-28T10:57:57;101940.09;;;27.03;26.32
46690;BME280;32423;45.398;10.874;2023-12-28T11:00:54;101932.09;;;24.84;27.85
46690;BME280;32423;45.398;10.874;2023-12-28T11:03:57;101928.97;;;25.88;27.13
46690;BME280;32423;45.398;10.874;2023-12-28T11:06:52;101933.72;;;29.19;23.65
46690;BME280;32423;45.398;10.874;2023-12-28T11:09:49;101928.72;;;29.44;22.30
46690;BME280;32423;45.398;10.874;2023-12-28T11:12:42;101919.34;;;27.29;24.58
46690;BME280;32423;45.398;10.874;2023-12-28T11:15:39;101914.16;;;25.19;27.09
46690;BME280;32423;45.398;10.874;2023-12-28T11:18:29;101901.81;;;24.76;28.62
46690;BME280;32423;45.398;10.874;2023-12-28T11:21:24;101889.81;;;25.67;27.66
46690;BME280;32423;45.398;10.874;2023-12-28T11:24:18;101886.91;;;24.94;27.26
46690;BME280;32423;45.398;10.874;2023-12-28T11:27:10;101881.22;;;24.84;28.26
46690;BME280;32423;45.398;10.874;2023-12-28T11:30:05;101876.78;;;25.23;27.63
46690;BME280;32423;45.398;10.874;2023-12-28T11:32:59;101870.53;;;25.40;27.73
46690;BME280;32423;45.398;10.874;2023-12-28T11:35:54;101871.03;;;26.57;25.67
46690;BME280;32423;45.398;10.874;2023-12-28T11:38:44;101863.13;;;27.02;24.98
46690;BME280;32423;45.398;10.874;2023-12-28T11:41:38;101860.03;;;28.15;22.81
46690;BME280;32423;45.398;10.874;2023-12-28T11:44:41;101858.41;;;28.21;22.57
46690;BME280;32423;45.398;10.874;2023-12-28T11:47:33;101850.34;;;28.89;22.40
46690;BME280;32423;45.398;10.874;2023-12-28T11:50:26;101854.50;;;29.56;21.77
46690;BME280;32423;45.398;10.874;2023-12-28T11:53:18;101843.47;;;23.75;28.87
46690;BME280;32423;45.398;10.874;2023-12-28T11:56:13;101837.63;;;22.56;30.03
46690;BME280;32423;45.398;10.874;2023-12-28T11:59:09;101830.25;;;21.64;31.24
46690;BME280;32423;45.398;10.874;2023-12-28T12:02:01;101822.38;;;20.96;32.55
46690;BME280;32423;45.398;10.874;2023-12-28T12:04:54;101817.53;;;20.30;34.41
46690;BME280;32423;45.398;10.874;2023-12-28T12:07:46;101816.50;;;20.51;33.67
46690;BME280;32423;45.398;10.874;2023-12-28T12:10:46;101808.91;;;20.95;33.93
46690;BME280;32423;45.398;10.874;2023-12-28T12:13:38;101808.75;;;19.57;35.98
46690;BME280;32423;45.398;10.874;2023-12-28T12:16:28;101811.44;;;18.56;38.01
46690;BME280;32423;45.398;10.874;2023-12-28T12:19:23;101808.06;;;18.06;39.68
46690;BME280;32423;45.398;10.874;2023-12-28T12:22:17;101803.81;;;17.75;39.12
46690;BME280;32423;45.398;10.874;2023-12-28T12:25:13;101810.56;;;17.36;40.29
46690;BME280;32423;45.398;10.874;2023-12-28T12:28:05;101801.13;;;16.41;41.75
46690;BME280;32423;45.398;10.874;2023-12-28T12:30:59;101799.00;;;16.00;43.12
46690;BME280;32423;45.398;10.874;2023-12-28T12:33:51;101791.88;;;15.47;44.11
46690;BME280;32423;45.398;10.874;2023-12-28T12:36:41;101787.22;;;15.48;44.58
46690;BME280;32423;45.398;10.874;2023-12-28T12:39:33;101783.16;;;15.45;45.25
46690;BME280;32423;45.398;10.874;2023-12-28T12:42:28;101778.06;;;15.52;44.87
46690;BME280;32423;45.398;10.874;2023-12-28T12:45:17;101780.59;;;15.40;44.52
46690;BME280;32423;45.398;10.874;2023-12-28T12:48:13;101777.84;;;15.23;45.05
46690;BME280;32423;45.398;10.874;2023-12-28T12:51:06;101775.63;;;14.77;45.71
46690;BME280;32423;45.398;10.874;2023-12-28T12:53:59;101773.03;;;14.72;46.07
46690;BME280;32423;45.398;10.874;2023-12-28T12:56:52;101774.31;;;14.74;46.18
46690;BME280;32423;45.398;10.874;2023-12-28T12:59:43;101769.94;;;15.13;44.92
46690;BME280;32423;45.398;10.874;2023-12-28T13:02:38;101768.63;;;15.19;44.79
46690;BME280;32423;45.398;10.874;2023-12-28T13:05:34;101779.56;;;15.02;44.51
46690;BME280;32423;45.398;10.874;2023-12-28T13:08:29;101771.63;;;14.83;45.54
46690;BME280;32423;45.398;10.874;2023-12-28T13:11:22;101775.94;;;14.67;46.09
46690;BME280;32423;45.398;10.874;2023-12-28T13:14:18;101764.63;;;14.68;46.55
46690;BME280;32423;45.398;10.874;2023-12-28T13:17:13;101769.47;;;14.63;46.29
46690;BME280;32423;45.398;10.874;2023-12-28T13:20:08;101770.25;;;14.63;47.04
46690;BME280;32423;45.398;10.874;2023-12-28T13:23:02;101756.75;;;14.67;46.71
46690;BME280;32423;45.398;10.874;2023-12-28T13:25:57;101768.13;;;14.51;47.82
46690;BME280;32423;45.398;10.874;2023-12-28T13:28:49;101760.94;;;14.33;48.27
46690;BME280;32423;45.398;10.874;2023-12-28T13:31:49;101760.88;;;14.47;47.66
46690;BME280;32423;45.398;10.874;2023-12-28T13:34:45;101752.69;;;14.55;47.62
46690;BME280;32423;45.398;10.874;2023-12-28T13:37:39;101750.94;;;14.60;47.24
46690;BME280;32423;45.398;10.874;2023-12-28T13:40:34;101749.56;;;14.40;48.83
46690;BME280;32423;45.398;10.874;2023-12-28T13:43:26;101755.56;;;14.50;48.08
46690;BME280;32423;45.398;10.874;2023-12-28T13:46:21;101755.25;;;14.52;48.30
46690;BME280;32423;45.398;10.874;2023-12-28T13:49:16;101748.84;;;14.65;47.94
46690;BME280;32423;45.398;10.874;2023-12-28T13:52:08;101755.69;;;14.85;47.64
46690;BME280;32423;45.398;10.874;2023-12-28T13:54:57;101749.78;;;15.17;46.44
46690;BME280;32423;45.398;10.874;2023-12-28T13:57:49;101741.06;;;15.15;46.54
46690;BME280;32423;45.398;10.874;2023-12-28T14:00:41;101738.47;;;14.93;46.81
46690;BME280;32423;45.398;10.874;2023-12-28T14:03:31;101734.06;;;14.66;48.00
46690;BME280;32423;45.398;10.874;2023-12-28T14:06:21;101746.38;;;14.46;48.27
46690;BME280;32423;45.398;10.874;2023-12-28T14:09:13;101743.50;;;14.21;49.19
46690;BME280;32423;45.398;10.874;2023-12-28T14:12:05;101746.16;;;14.12;49.10
46690;BME280;32423;45.398;10.874;2023-12-28T14:14:55;101742.63;;;13.58;50.91
46690;BME280;32423;45.398;10.874;2023-12-28T14:17:42;101741.50;;;13.59;50.57
46690;BME280;32423;45.398;10.874;2023-12-28T14:20:33;101755.25;;;13.32;51.95
46690;BME280;32423;45.398;10.874;2023-12-28T14:23:23;101742.69;;;13.31;52.50
46690;BME280;32423;45.398;10.874;2023-12-28T14:26:16;101745.03;;;13.60;51.37
46690;BME280;32423;45.398;10.874;2023-12-28T14:29:06;101732.63;;;13.76;50.75
46690;BME280;32423;45.398;10.874;2023-12-28T14:31:57;101746.09;;;13.73;51.06
46690;BME280;32423;45.398;10.874;2023-12-28T14:34:47;101747.09;;;13.54;51.54
46690;BME280;32423;45.398;10.874;2023-12-28T14:37:39;101748.75;;;13.42;52.49
46690;BME280;32423;45.398;10.874;2023-12-28T14:40:31;101744.56;;;13.22;52.69
46690;BME280;32423;45.398;10.874;2023-12-28T14:43:18;101745.47;;;13.17;53.07
46690;BME280;32423;45.398;10.874;2023-12-28T14:46:08;101743.66;;;13.13;53.07
46690;BME280;32423;45.398;10.874;2023-12-28T14:48:58;101740.31;;;13.16;53.09
46690;BME280;32423;45.398;10.874;2023-12-28T14:51:47;101740.72;;;12.96;53.51
46690;BME280;32423;45.398;10.874;2023-12-28T14:54:39;101738.94;;;12.50;55.13
46690;BME280;32423;45.398;10.874;2023-12-28T14:57:28;101739.13;;;12.40;55.18
46690;BME280;32423;45.398;10.874;2023-12-28T15:00:15;101733.38;;;12.28;55.79
46690;BME280;32423;45.398;10.874;2023-12-28T15:03:07;101730.34;;;12.29;55.65
46690;BME280;32423;45.398;10.874;2023-12-28T15:05:57;101728.03;;;12.23;55.57